sensor_id;sensor_type;location;lat;lon;timestamp;P1;durP1;ratioP1;P2;durP2;ratioP2
37973;SDS011;23796;51.458;7.000;2022-10-13T00:01:41;12.70;;;7.85;;
37973;SDS011;23796;51.458;7.000;2022-10-13T00:04:08;9.57;;;6.75;;
37973;SDS011;23796;51.458;7.000;2022-10-13T00:06:42;10.30;;;7.38;;
37973;SDS011;23796;51.458;7.000;2022-10-13T00:09:07;11.20;;;6.75;;
37973;SDS011;23796;51.458;7.000;2022-10-13T00:11:33;10.60;;;7.35;;
37973;SDS011;23796;51.458;7.000;2022-10-13T00:14:01;16.30;;;7.30;;
37973;SDS011;23796;51.458;7.000;2022-10-13T00:16:29;12.65;;;7.18;;
37973;SDS011;23796;51.458;7.000;2022-10-13T00:18:55;12.80;;;7.97;;
37973;SDS011;23796;51.458;7.000;2022-10-13T00:21:23;17.00;;;7.32;;
37973;SDS011;23796;51.458;7.000;2022-10-13T00:23:51;10.68;;;6.80;;
37973;SDS011;23796;51.458;7.000;2022-10-13T00:26:20;11.45;;;7.32;;
37973;SDS011;23796;51.458;7.000;2022-10-13T00:28:47;8.65;;;6.90;;
37973;SDS011;23796;51.458;7.000;2022-10-13T00:31:14;13.60;;;7.22;;
37973;SDS011;23796;51.458;7.000;2022-10-13T00:33:43;16.05;;;7.78;;
37973;SDS011;23796;51.458;7.000;2022-10-13T00:36:09;11.40;;;7.32;;
37973;SDS011;23796;51.458;7.000;2022-10-13T00:38:34;12.13;;;7.22;;
37973;SDS011;23796;51.458;7.000;2022-10-13T00:41:04;12.02;;;7.35;;
37973;SDS011;23796;51.458;7.000;2022-10-13T00:43:49;8.75;;;6.65;;
37973;SDS011;23796;51.458;7.000;2022-10-13T00:46:15;10.68;;;6.72;;
37973;SDS011;23796;51.458;7.000;2022-10-13T00:48:41;10.23;;;6.65;;
37973;SDS011;23796;51.458;7.000;2022-10-13T00:51:11;10.05;;;6.75;;
37973;SDS011;23796;51.458;7.000;2022-10-13T00:53:44;10.07;;;6.50;;
37973;SDS011;23796;51.458;7.000;2022-10-13T00:56:11;11.27;;;6.88;;
37973;SDS011;23796;51.458;7.000;2022-10-13T00:58:41;12.55;;;6.93;;
37973;SDS011;23796;51.458;7.000;2022-10-13T01:01:08;10.85;;;7.22;;
37973;SDS011;23796;51.458;7.000;2022-10-13T01:03:34;9.75;;;7.15;;
37973;SDS011;23796;51.458;7.000;2022-10-13T01:06:03;11.13;;;7.07;;
37973;SDS011;23796;51.458;7.000;2022-10-13T01:08:31;9.88;;;6.47;;
37973;SDS011;23796;51.458;7.000;2022-10-13T01:30:41;13.35;;;6.47;;
37973;SDS011;23796;51.458;7.000;2022-10-13T01:44:22;11.57;;;7.10;;
37973;SDS011;23796;51.458;7.000;2022-10-13T01:46:52;11.27;;;6.72;;
37973;SDS011;23796;51.458;7.000;2022-10-13T01:49:19;11.63;;;6.30;;
37973;SDS011;23796;51.458;7.000;2022-10-13T01:51:58;9.32;;;6.65;;
37973;SDS011;23796;51.458;7.000;2022-10-13T01:54:26;11.55;;;7.20;;
37973;SDS011;23796;51.458;7.000;2022-10-13T01:56:55;11.55;;;6.80;;
37973;SDS011;23796;51.458;7.000;2022-10-13T01:59:21;11.10;;;6.63;;
37973;SDS011;23796;51.458;7.000;2022-10-13T02:13:04;14.93;;;7.07;;
37973;SDS011;23796;51.458;7.000;2022-10-13T02:15:48;10.98;;;6.38;;
37973;SDS011;23796;51.458;7.000;2022-10-13T02:18:18;9.70;;;6.13;;
37973;SDS011;23796;51.458;7.000;2022-10-13T02:20:49;12.68;;;6.90;;
37973;SDS011;23796;51.458;7.000;2022-10-13T02:23:17;10.25;;;6.78;;
37973;SDS011;23796;51.458;7.000;2022-10-13T02:25:46;10.23;;;6.32;;
37973;SDS011;23796;51.458;7.000;2022-10-13T02:28:12;9.35;;;6.50;;
37973;SDS011;23796;51.458;7.000;2022-10-13T02:30:39;9.88;;;6.13;;
37973;SDS011;23796;51.458;7.000;2022-10-13T02:33:06;11.23;;;6.55;;
37973;SDS011;23796;51.458;7.000;2022-10-13T02:35:35;10.05;;;6.63;;
37973;SDS011;23796;51.458;7.000;2022-10-13T02:38:01;9.70;;;6.50;;
37973;SDS011;23796;51.458;7.000;2022-10-13T02:40:29;11.13;;;6.47;;
37973;SDS011;23796;51.458;7.000;2022-10-13T02:42:55;10.57;;;6.43;;
37973;SDS011;23796;51.458;7.000;2022-10-13T02:45:23;11.15;;;6.88;;
37973;SDS011;23796;51.458;7.000;2022-10-13T02:47:51;11.07;;;6.45;;
37973;SDS011;23796;51.458;7.000;2022-10-13T02:50:20;10.07;;;6.65;;
37973;SDS011;23796;51.458;7.000;2022-10-13T02:52:45;11.27;;;7.05;;
37973;SDS011;23796;51.458;7.000;2022-10-13T02:55:11;10.20;;;7.18;;
37973;SDS011;23796;51.458;7.000;2022-10-13T02:57:39;10.60;;;6.68;;
37973;SDS011;23796;51.458;7.000;2022-10-13T03:00:05;9.70;;;6.57;;
37973;SDS011;23796;51.458;7.000;2022-10-13T03:02:31;11.18;;;6.45;;
37973;SDS011;23796;51.458;7.000;2022-10-13T03:04:57;9.13;;;6.55;;
37973;SDS011;23796;51.458;7.000;2022-10-13T03:07:22;11.00;;;6.78;;
37973;SDS011;23796;51.458;7.000;2022-10-13T03:09:50;7.53;;;5.85;;
37973;SDS011;23796;51.458;7.000;2022-10-13T03:12:16;9.05;;;6.80;;
37973;SDS011;23796;51.458;7.000;2022-10-13T03:14:41;12.10;;;6.55;;
37973;SDS011;23796;51.458;7.000;2022-10-13T03:17:10;8.82;;;6.55;;
37973;SDS011;23796;51.458;7.000;2022-10-13T03:19:38;12.25;;;6.93;;
37973;SDS011;23796;51.458;7.000;2022-10-13T03:22:04;10.95;;;6.65;;
37973;SDS011;23796;51.458;7.000;2022-10-13T03:24:32;11.30;;;7.10;;
37973;SDS011;23796;51.458;7.000;2022-10-13T03:26:57;13.38;;;6.47;;
37973;SDS011;23796;51.458;7.000;2022-10-13T03:29:23;9.50;;;6.40;;
37973;SDS011;23796;51.458;7.000;2022-10-13T03:31:49;14.85;;;7.13;;
37973;SDS011;23796;51.458;7.000;2022-10-13T03:34:14;12.48;;;6.68;;
37973;SDS011;23796;51.458;7.000;2022-10-13T03:36:41;14.05;;;6.43;;
37973;SDS011;23796;51.458;7.000;2022-10-13T03:39:07;11.23;;;7.68;;
37973;SDS011;23796;51.458;7.000;2022-10-13T03:41:32;11.27;;;7.03;;
37973;SDS011;23796;51.458;7.000;2022-10-13T03:43:58;10.07;;;6.93;;
37973;SDS011;23796;51.458;7.000;2022-10-13T03:46:26;10.80;;;6.68;;
37973;SDS011;23796;51.458;7.000;2022-10-13T03:48:55;12.35;;;6.93;;
37973;SDS011;23796;51.458;7.000;2022-10-13T03:51:21;11.00;;;6.65;;
37973;SDS011;23796;51.458;7.000;2022-10-13T03:53:48;12.57;;;6.45;;
37973;SDS011;23796;51.458;7.000;2022-10-13T03:56:22;11.15;;;6.68;;
37973;SDS011;23796;51.458;7.000;2022-10-13T03:58:57;10.05;;;6.68;;
37973;SDS011;23796;51.458;7.000;2022-10-13T04:01:25;11.02;;;6.93;;
37973;SDS011;23796;51.458;7.000;2022-10-13T04:03:53;12.20;;;7.53;;
37973;SDS011;23796;51.458;7.000;2022-10-13T04:06:22;14.00;;;7.43;;
37973;SDS011;23796;51.458;7.000;2022-10-13T04:08:49;11.45;;;6.72;;
37973;SDS011;23796;51.458;7.000;2022-10-13T04:11:15;12.18;;;6.70;;
37973;SDS011;23796;51.458;7.000;2022-10-13T04:13:42;10.55;;;6.40;;
37973;SDS011;23796;51.458;7.000;2022-10-13T04:16:12;11.68;;;5.93;;
37973;SDS011;23796;51.458;7.000;2022-10-13T04:18:48;12.60;;;7.20;;
37973;SDS011;23796;51.458;7.000;2022-10-13T04:21:22;12.07;;;6.85;;
37973;SDS011;23796;51.458;7.000;2022-10-13T04:23:50;11.60;;;6.93;;
37973;SDS011;23796;51.458;7.000;2022-10-13T04:26:20;10.48;;;7.10;;
37973;SDS011;23796;51.458;7.000;2022-10-13T04:28:46;12.30;;;6.18;;
37973;SDS011;23796;51.458;7.000;2022-10-13T04:31:13;11.43;;;6.70;;
37973;SDS011;23796;51.458;7.000;2022-10-13T04:33:39;12.95;;;7.57;;
37973;SDS011;23796;51.458;7.000;2022-10-13T04:36:09;12.13;;;6.47;;
37973;SDS011;23796;51.458;7.000;2022-10-13T04:38:36;13.20;;;6.78;;
37973;SDS011;23796;51.458;7.000;2022-10-13T04:41:03;10.43;;;7.38;;
37973;SDS011;23796;51.458;7.000;2022-10-13T04:43:34;11.48;;;7.07;;
37973;SDS011;23796;51.458;7.000;2022-10-13T04:46:03;10.43;;;6.45;;
37973;SDS011;23796;51.458;7.000;2022-10-13T04:48:36;10.73;;;6.60;;
37973;SDS011;23796;51.458;7.000;2022-10-13T04:51:09;12.35;;;6.82;;
37973;SDS011;23796;51.458;7.000;2022-10-13T04:53:39;10.80;;;7.32;;
37973;SDS011;23796;51.458;7.000;2022-10-13T04:56:09;13.20;;;7.07;;
37973;SDS011;23796;51.458;7.000;2022-10-13T04:58:37;14.45;;;6.78;;
37973;SDS011;23796;51.458;7.000;2022-10-13T05:01:06;15.65;;;6.78;;
37973;SDS011;23796;51.458;7.000;2022-10-13T05:03:35;9.27;;;6.20;;
37973;SDS011;23796;51.458;7.000;2022-10-13T05:06:01;9.38;;;6.05;;
37973;SDS011;23796;51.458;7.000;2022-10-13T05:08:27;10.13;;;5.70;;
37973;SDS011;23796;51.458;7.000;2022-10-13T05:10:53;11.23;;;5.95;;
37973;SDS011;23796;51.458;7.000;2022-10-13T05:13:20;9.85;;;6.50;;
37973;SDS011;23796;51.458;7.000;2022-10-13T05:15:46;10.88;;;6.07;;
37973;SDS011;23796;51.458;7.000;2022-10-13T05:18:14;8.25;;;5.90;;
37973;SDS011;23796;51.458;7.000;2022-10-13T05:20:39;11.90;;;6.10;;
37973;SDS011;23796;51.458;7.000;2022-10-13T05:23:07;12.23;;;5.88;;
37973;SDS011;23796;51.458;7.000;2022-10-13T05:25:33;11.57;;;6.13;;
37973;SDS011;23796;51.458;7.000;2022-10-13T05:28:00;9.95;;;6.13;;
37973;SDS011;23796;51.458;7.000;2022-10-13T05:30:28;12.45;;;5.93;;
37973;SDS011;23796;51.458;7.000;2022-10-13T05:32:53;12.43;;;6.45;;
37973;SDS011;23796;51.458;7.000;2022-10-13T05:35:19;10.63;;;6.63;;
37973;SDS011;23796;51.458;7.000;2022-10-13T05:37:45;8.88;;;5.97;;
37973;SDS011;23796;51.458;7.000;2022-10-13T05:40:12;11.38;;;6.03;;
37973;SDS011;23796;51.458;7.000;2022-10-13T05:42:38;11.90;;;5.88;;
37973;SDS011;23796;51.458;7.000;2022-10-13T05:45:04;9.95;;;6.20;;
37973;SDS011;23796;51.458;7.000;2022-10-13T05:47:33;12.32;;;6.60;;
37973;SDS011;23796;51.458;7.000;2022-10-13T05:49:59;10.27;;;6.43;;
37973;SDS011;23796;51.458;7.000;2022-10-13T05:52:24;13.82;;;6.47;;
37973;SDS011;23796;51.458;7.000;2022-10-13T05:54:54;12.32;;;6.28;;
37973;SDS011;23796;51.458;7.000;2022-10-13T05:57:23;10.48;;;6.47;;
37973;SDS011;23796;51.458;7.000;2022-10-13T05:59:55;10.70;;;6.40;;
37973;SDS011;23796;51.458;7.000;2022-10-13T06:02:26;11.25;;;6.20;;
37973;SDS011;23796;51.458;7.000;2022-10-13T06:04:58;12.07;;;6.43;;
37973;SDS011;23796;51.458;7.000;2022-10-13T06:07:26;11.77;;;6.90;;
37973;SDS011;23796;51.458;7.000;2022-10-13T06:09:54;11.57;;;6.70;;
37973;SDS011;23796;51.458;7.000;2022-10-13T06:12:21;10.23;;;6.38;;
37973;SDS011;23796;51.458;7.000;2022-10-13T06:14:46;12.88;;;6.53;;
37973;SDS011;23796;51.458;7.000;2022-10-13T06:17:12;14.27;;;6.32;;
37973;SDS011;23796;51.458;7.000;2022-10-13T06:19:38;11.82;;;6.32;;
37973;SDS011;23796;51.458;7.000;2022-10-13T06:22:04;9.95;;;6.70;;
37973;SDS011;23796;51.458;7.000;2022-10-13T06:24:29;12.07;;;6.75;;
37973;SDS011;23796;51.458;7.000;2022-10-13T06:26:58;11.13;;;6.40;;
37973;SDS011;23796;51.458;7.000;2022-10-13T06:29:24;9.57;;;6.20;;
37973;SDS011;23796;51.458;7.000;2022-10-13T06:31:50;11.93;;;6.22;;
37973;SDS011;23796;51.458;7.000;2022-10-13T06:34:16;12.02;;;7.22;;
37973;SDS011;23796;51.458;7.000;2022-10-13T06:36:42;10.98;;;6.60;;
37973;SDS011;23796;51.458;7.000;2022-10-13T06:39:08;11.07;;;6.47;;
37973;SDS011;23796;51.458;7.000;2022-10-13T06:41:34;13.55;;;6.68;;
37973;SDS011;23796;51.458;7.000;2022-10-13T06:44:03;9.20;;;6.10;;
37973;SDS011;23796;51.458;7.000;2022-10-13T06:46:30;8.93;;;5.90;;
37973;SDS011;23796;51.458;7.000;2022-10-13T06:48:56;16.63;;;6.63;;
37973;SDS011;23796;51.458;7.000;2022-10-13T06:51:25;12.32;;;6.55;;
37973;SDS011;23796;51.458;7.000;2022-10-13T06:53:51;11.40;;;6.60;;
37973;SDS011;23796;51.458;7.000;2022-10-13T06:56:17;11.65;;;5.75;;
37973;SDS011;23796;51.458;7.000;2022-10-13T06:58:43;11.52;;;6.28;;
37973;SDS011;23796;51.458;7.000;2022-10-13T07:01:10;12.55;;;6.20;;
37973;SDS011;23796;51.458;7.000;2022-10-13T07:03:40;11.77;;;6.63;;
37973;SDS011;23796;51.458;7.000;2022-10-13T07:06:06;12.07;;;6.63;;
37973;SDS011;23796;51.458;7.000;2022-10-13T07:08:33;9.45;;;6.43;;
37973;SDS011;23796;51.458;7.000;2022-10-13T07:11:09;9.27;;;6.22;;
37973;SDS011;23796;51.458;7.000;2022-10-13T07:13:37;9.93;;;6.60;;
37973;SDS011;23796;51.458;7.000;2022-10-13T07:16:09;11.57;;;7.03;;
37973;SDS011;23796;51.458;7.000;2022-10-13T07:18:47;12.95;;;7.20;;
37973;SDS011;23796;51.458;7.000;2022-10-13T07:21:13;13.23;;;6.82;;
37973;SDS011;23796;51.458;7.000;2022-10-13T07:23:42;12.55;;;6.97;;
37973;SDS011;23796;51.458;7.000;2022-10-13T07:26:12;9.25;;;6.25;;
37973;SDS011;23796;51.458;7.000;2022-10-13T07:28:40;9.73;;;6.30;;
37973;SDS011;23796;51.458;7.000;2022-10-13T07:31:10;11.80;;;7.13;;
37973;SDS011;23796;51.458;7.000;2022-10-13T07:33:42;9.25;;;6.10;;
37973;SDS011;23796;51.458;7.000;2022-10-13T07:36:09;11.88;;;7.07;;
37973;SDS011;23796;51.458;7.000;2022-10-13T07:38:36;11.35;;;6.30;;
37973;SDS011;23796;51.458;7.000;2022-10-13T07:41:06;14.02;;;7.63;;
37973;SDS011;23796;51.458;7.000;2022-10-13T07:43:34;12.60;;;6.28;;
37973;SDS011;23796;51.458;7.000;2022-10-13T07:46:00;13.55;;;7.10;;
37973;SDS011;23796;51.458;7.000;2022-10-13T07:48:30;11.13;;;6.45;;
37973;SDS011;23796;51.458;7.000;2022-10-13T07:50:56;10.93;;;7.13;;
37973;SDS011;23796;51.458;7.000;2022-10-13T07:53:22;9.60;;;7.00;;
37973;SDS011;23796;51.458;7.000;2022-10-13T07:55:48;10.98;;;7.30;;
37973;SDS011;23796;51.458;7.000;2022-10-13T07:58:14;12.20;;;6.95;;
37973;SDS011;23796;51.458;7.000;2022-10-13T08:00:40;11.82;;;6.93;;
37973;SDS011;23796;51.458;7.000;2022-10-13T08:03:09;14.45;;;6.95;;
37973;SDS011;23796;51.458;7.000;2022-10-13T08:05:35;10.32;;;6.05;;
37973;SDS011;23796;51.458;7.000;2022-10-13T08:08:05;9.00;;;6.68;;
37973;SDS011;23796;51.458;7.000;2022-10-13T08:10:35;11.38;;;6.18;;
37973;SDS011;23796;51.458;7.000;2022-10-13T08:13:01;9.85;;;6.70;;
37973;SDS011;23796;51.458;7.000;2022-10-13T08:15:26;10.85;;;6.90;;
37973;SDS011;23796;51.458;7.000;2022-10-13T08:17:54;9.68;;;6.93;;
37973;SDS011;23796;51.458;7.000;2022-10-13T08:20:20;13.32;;;6.57;;
37973;SDS011;23796;51.458;7.000;2022-10-13T08:22:48;10.25;;;6.20;;
37973;SDS011;23796;51.458;7.000;2022-10-13T08:25:16;11.90;;;6.90;;
37973;SDS011;23796;51.458;7.000;2022-10-13T08:27:42;9.43;;;6.70;;
37973;SDS011;23796;51.458;7.000;2022-10-13T08:30:10;10.82;;;6.30;;
37973;SDS011;23796;51.458;7.000;2022-10-13T08:32:35;11.35;;;6.28;;
37973;SDS011;23796;51.458;7.000;2022-10-13T08:35:03;11.88;;;6.25;;
37973;SDS011;23796;51.458;7.000;2022-10-13T08:37:29;11.52;;;6.40;;
37973;SDS011;23796;51.458;7.000;2022-10-13T08:40:00;10.13;;;6.40;;
37973;SDS011;23796;51.458;7.000;2022-10-13T08:42:30;13.52;;;6.13;;
37973;SDS011;23796;51.458;7.000;2022-10-13T08:45:01;11.50;;;6.25;;
37973;SDS011;23796;51.458;7.000;2022-10-13T08:47:33;12.50;;;7.70;;
37973;SDS011;23796;51.458;7.000;2022-10-13T08:50:15;11.05;;;6.80;;
37973;SDS011;23796;51.458;7.000;2022-10-13T08:55:19;9.23;;;5.70;;
37973;SDS011;23796;51.458;7.000;2022-10-13T08:58:05;12.02;;;6.68;;
37973;SDS011;23796;51.458;7.000;2022-10-13T09:00:36;9.30;;;6.22;;
37973;SDS011;23796;51.458;7.000;2022-10-13T09:03:16;9.25;;;6.05;;
37973;SDS011;23796;51.458;7.000;2022-10-13T09:05:57;9.35;;;5.88;;
37973;SDS011;23796;51.458;7.000;2022-10-13T09:08:39;9.73;;;5.65;;
37973;SDS011;23796;51.458;7.000;2022-10-13T09:11:18;10.13;;;6.57;;
37973;SDS011;23796;51.458;7.000;2022-10-13T09:13:47;12.02;;;5.72;;
37973;SDS011;23796;51.458;7.000;2022-10-13T09:16:12;12.70;;;6.63;;
37973;SDS011;23796;51.458;7.000;2022-10-13T09:18:38;10.35;;;5.50;;
37973;SDS011;23796;51.458;7.000;2022-10-13T09:21:08;9.65;;;6.18;;
37973;SDS011;23796;51.458;7.000;2022-10-13T09:23:45;11.90;;;5.75;;
37973;SDS011;23796;51.458;7.000;2022-10-13T09:26:18;12.65;;;6.13;;
37973;SDS011;23796;51.458;7.000;2022-10-13T09:28:49;9.73;;;5.30;;
37973;SDS011;23796;51.458;7.000;2022-10-13T09:31:27;11.25;;;5.93;;
37973;SDS011;23796;51.458;7.000;2022-10-13T09:33:58;9.45;;;5.30;;
37973;SDS011;23796;51.458;7.000;2022-10-13T09:36:27;9.70;;;5.20;;
37973;SDS011;23796;51.458;7.000;2022-10-13T09:41:49;8.88;;;4.65;;
37973;SDS011;23796;51.458;7.000;2022-10-13T09:44:17;7.43;;;5.15;;
37973;SDS011;23796;51.458;7.000;2022-10-13T09:46:55;7.90;;;5.60;;
37973;SDS011;23796;51.458;7.000;2022-10-13T09:52:02;10.07;;;4.75;;
37973;SDS011;23796;51.458;7.000;2022-10-13T09:57:03;9.95;;;4.90;;
37973;SDS011;23796;51.458;7.000;2022-10-13T10:05:14;9.45;;;5.03;;
37973;SDS011;23796;51.458;7.000;2022-10-13T10:07:49;9.40;;;4.72;;
37973;SDS011;23796;51.458;7.000;2022-10-13T10:12:53;6.70;;;4.70;;
37973;SDS011;23796;51.458;7.000;2022-10-13T10:15:20;10.27;;;4.50;;
37973;SDS011;23796;51.458;7.000;2022-10-13T10:17:54;8.95;;;4.72;;
37973;SDS011;23796;51.458;7.000;2022-10-13T10:25:32;8.00;;;4.05;;
37973;SDS011;23796;51.458;7.000;2022-10-13T10:39:22;9.65;;;4.63;;
37973;SDS011;23796;51.458;7.000;2022-10-13T10:42:05;6.57;;;4.28;;
37973;SDS011;23796;51.458;7.000;2022-10-13T10:44:56;8.18;;;4.32;;
37973;SDS011;23796;51.458;7.000;2022-10-13T10:47:38;8.38;;;3.60;;
37973;SDS011;23796;51.458;7.000;2022-10-13T10:50:12;10.50;;;3.83;;
37973;SDS011;23796;51.458;7.000;2022-10-13T10:58:18;7.23;;;3.90;;
37973;SDS011;23796;51.458;7.000;2022-10-13T11:01:06;9.55;;;4.38;;
37973;SDS011;23796;51.458;7.000;2022-10-13T11:08:50;8.27;;;4.60;;
37973;SDS011;23796;51.458;7.000;2022-10-13T11:13:53;6.88;;;4.07;;
37973;SDS011;23796;51.458;7.000;2022-10-13T11:16:31;6.68;;;4.05;;
37973;SDS011;23796;51.458;7.000;2022-10-13T11:32:40;6.35;;;4.25;;
37973;SDS011;23796;51.458;7.000;2022-10-13T11:35:46;9.70;;;4.35;;
37973;SDS011;23796;51.458;7.000;2022-10-13T11:38:16;16.63;;;5.10;;
37973;SDS011;23796;51.458;7.000;2022-10-13T11:52:18;8.52;;;4.30;;
37973;SDS011;23796;51.458;7.000;2022-10-13T11:54:53;8.70;;;4.32;;
37973;SDS011;23796;51.458;7.000;2022-10-13T11:57:27;10.35;;;5.00;;
37973;SDS011;23796;51.458;7.000;2022-10-13T11:59:58;6.68;;;4.30;;
37973;SDS011;23796;51.458;7.000;2022-10-13T12:02:24;9.68;;;4.90;;
37973;SDS011;23796;51.458;7.000;2022-10-13T12:07:34;10.88;;;4.93;;
37973;SDS011;23796;51.458;7.000;2022-10-13T12:10:05;10.85;;;4.63;;
37973;SDS011;23796;51.458;7.000;2022-10-13T12:12:44;7.97;;;5.05;;
37973;SDS011;23796;51.458;7.000;2022-10-13T12:15:29;7.78;;;4.20;;
37973;SDS011;23796;51.458;7.000;2022-10-13T12:17:57;9.32;;;4.65;;
37973;SDS011;23796;51.458;7.000;2022-10-13T12:20:32;6.22;;;4.03;;
37973;SDS011;23796;51.458;7.000;2022-10-13T12:22:58;9.15;;;4.45;;
37973;SDS011;23796;51.458;7.000;2022-10-13T12:25:25;9.82;;;4.82;;
37973;SDS011;23796;51.458;7.000;2022-10-13T12:27:54;8.10;;;4.78;;
37973;SDS011;23796;51.458;7.000;2022-10-13T12:30:24;6.38;;;4.20;;
37973;SDS011;23796;51.458;7.000;2022-10-13T12:33:01;7.70;;;3.90;;
37973;SDS011;23796;51.458;7.000;2022-10-13T12:35:33;8.73;;;4.43;;
37973;SDS011;23796;51.458;7.000;2022-10-13T12:38:04;9.45;;;4.05;;
37973;SDS011;23796;51.458;7.000;2022-10-13T12:40:34;8.55;;;4.53;;
37973;SDS011;23796;51.458;7.000;2022-10-13T12:42:59;9.45;;;3.85;;
37973;SDS011;23796;51.458;7.000;2022-10-13T12:45:32;9.23;;;3.95;;
37973;SDS011;23796;51.458;7.000;2022-10-13T12:47:59;7.07;;;3.60;;
37973;SDS011;23796;51.458;7.000;2022-10-13T12:53:14;9.95;;;4.07;;
37973;SDS011;23796;51.458;7.000;2022-10-13T12:56:05;10.07;;;4.30;;
37973;SDS011;23796;51.458;7.000;2022-10-13T12:58:33;7.93;;;3.67;;
37973;SDS011;23796;51.458;7.000;2022-10-13T13:01:07;12.43;;;5.45;;
37973;SDS011;23796;51.458;7.000;2022-10-13T13:03:57;9.73;;;7.47;;
37973;SDS011;23796;51.458;7.000;2022-10-13T13:06:39;8.52;;;3.65;;
37973;SDS011;23796;51.458;7.000;2022-10-13T13:09:18;6.35;;;3.30;;
37973;SDS011;23796;51.458;7.000;2022-10-13T13:11:44;6.72;;;3.92;;
37973;SDS011;23796;51.458;7.000;2022-10-13T13:19:43;7.20;;;3.17;;
37973;SDS011;23796;51.458;7.000;2022-10-13T13:22:12;5.18;;;2.95;;
37973;SDS011;23796;51.458;7.000;2022-10-13T13:24:39;7.90;;;3.45;;
37973;SDS011;23796;51.458;7.000;2022-10-13T13:27:10;8.63;;;3.60;;
37973;SDS011;23796;51.458;7.000;2022-10-13T13:29:51;7.07;;;3.58;;
37973;SDS011;23796;51.458;7.000;2022-10-13T13:32:19;6.10;;;3.10;;
37973;SDS011;23796;51.458;7.000;2022-10-13T13:34:47;7.63;;;3.08;;
37973;SDS011;23796;51.458;7.000;2022-10-13T13:37:15;7.78;;;3.40;;
37973;SDS011;23796;51.458;7.000;2022-10-13T13:39:50;8.52;;;3.08;;
37973;SDS011;23796;51.458;7.000;2022-10-13T13:42:19;6.95;;;3.47;;
37973;SDS011;23796;51.458;7.000;2022-10-13T13:44:47;5.70;;;2.80;;
37973;SDS011;23796;51.458;7.000;2022-10-13T13:47:18;9.90;;;3.60;;
37973;SDS011;23796;51.458;7.000;2022-10-13T13:49:49;6.93;;;3.38;;
37973;SDS011;23796;51.458;7.000;2022-10-13T13:52:21;6.80;;;3.20;;
37973;SDS011;23796;51.458;7.000;2022-10-13T13:54:48;5.55;;;2.88;;
37973;SDS011;23796;51.458;7.000;2022-10-13T13:57:14;6.03;;;3.28;;
37973;SDS011;23796;51.458;7.000;2022-10-13T13:59:41;6.00;;;3.08;;
37973;SDS011;23796;51.458;7.000;2022-10-13T14:02:20;5.78;;;3.20;;
37973;SDS011;23796;51.458;7.000;2022-10-13T14:04:46;6.05;;;3.15;;
37973;SDS011;23796;51.458;7.000;2022-10-13T14:07:12;7.75;;;3.40;;
37973;SDS011;23796;51.458;7.000;2022-10-13T14:09:40;6.88;;;4.00;;
37973;SDS011;23796;51.458;7.000;2022-10-13T14:12:06;9.05;;;4.18;;
37973;SDS011;23796;51.458;7.000;2022-10-13T14:14:38;7.28;;;3.45;;
37973;SDS011;23796;51.458;7.000;2022-10-13T14:17:04;5.70;;;3.65;;
37973;SDS011;23796;51.458;7.000;2022-10-13T14:19:32;6.30;;;3.33;;
37973;SDS011;23796;51.458;7.000;2022-10-13T14:21:58;5.68;;;2.85;;
37973;SDS011;23796;51.458;7.000;2022-10-13T14:24:25;7.07;;;3.08;;
37973;SDS011;23796;51.458;7.000;2022-10-13T14:26:58;8.20;;;4.00;;
37973;SDS011;23796;51.458;7.000;2022-10-13T14:29:24;8.05;;;3.20;;
37973;SDS011;23796;51.458;7.000;2022-10-13T14:31:52;9.30;;;3.90;;
37973;SDS011;23796;51.458;7.000;2022-10-13T14:34:20;5.80;;;3.65;;
37973;SDS011;23796;51.458;7.000;2022-10-13T14:36:46;6.88;;;3.80;;
37973;SDS011;23796;51.458;7.000;2022-10-13T14:39:14;7.43;;;3.78;;
37973;SDS011;23796;51.458;7.000;2022-10-13T14:41:42;6.55;;;3.70;;
37973;SDS011;23796;51.458;7.000;2022-10-13T14:44:08;7.43;;;4.10;;
37973;SDS011;23796;51.458;7.000;2022-10-13T14:46:38;7.25;;;4.35;;
37973;SDS011;23796;51.458;7.000;2022-10-13T14:49:05;9.77;;;5.07;;
37973;SDS011;23796;51.458;7.000;2022-10-13T14:51:33;7.85;;;4.88;;
37973;SDS011;23796;51.458;7.000;2022-10-13T14:53:59;7.78;;;4.25;;
37973;SDS011;23796;51.458;7.000;2022-10-13T14:56:28;6.20;;;4.10;;
37973;SDS011;23796;51.458;7.000;2022-10-13T14:58:58;7.22;;;4.78;;
37973;SDS011;23796;51.458;7.000;2022-10-13T15:01:28;10.00;;;5.30;;
37973;SDS011;23796;51.458;7.000;2022-10-13T15:03:57;8.00;;;4.65;;
37973;SDS011;23796;51.458;7.000;2022-10-13T15:06:26;8.30;;;5.03;;
37973;SDS011;23796;51.458;7.000;2022-10-13T15:08:51;8.95;;;5.03;;
37973;SDS011;23796;51.458;7.000;2022-10-13T15:11:21;10.88;;;5.05;;
37973;SDS011;23796;51.458;7.000;2022-10-13T15:13:46;8.40;;;5.28;;
37973;SDS011;23796;51.458;7.000;2022-10-13T15:16:25;11.00;;;6.13;;
37973;SDS011;23796;51.458;7.000;2022-10-13T15:18:56;9.05;;;5.40;;
37973;SDS011;23796;51.458;7.000;2022-10-13T15:21:27;10.45;;;5.90;;
37973;SDS011;23796;51.458;7.000;2022-10-13T15:23:53;18.25;;;10.27;;
37973;SDS011;23796;51.458;7.000;2022-10-13T15:26:21;29.08;;;24.80;;
37973;SDS011;23796;51.458;7.000;2022-10-13T15:28:48;11.05;;;6.93;;
37973;SDS011;23796;51.458;7.000;2022-10-13T15:31:16;8.57;;;6.00;;
37973;SDS011;23796;51.458;7.000;2022-10-13T15:33:47;10.38;;;5.60;;
37973;SDS011;23796;51.458;7.000;2022-10-13T15:36:15;10.00;;;6.18;;
37973;SDS011;23796;51.458;7.000;2022-10-13T15:38:44;10.05;;;6.32;;
37973;SDS011;23796;51.458;7.000;2022-10-13T15:41:12;9.75;;;6.15;;
37973;SDS011;23796;51.458;7.000;2022-10-13T15:43:37;12.32;;;6.22;;
37973;SDS011;23796;51.458;7.000;2022-10-13T15:46:04;8.52;;;5.95;;
37973;SDS011;23796;51.458;7.000;2022-10-13T15:48:34;10.70;;;6.28;;
37973;SDS011;23796;51.458;7.000;2022-10-13T15:50:59;8.40;;;6.15;;
37973;SDS011;23796;51.458;7.000;2022-10-13T15:53:32;10.82;;;6.47;;
37973;SDS011;23796;51.458;7.000;2022-10-13T15:56:00;10.02;;;5.40;;
37973;SDS011;23796;51.458;7.000;2022-10-13T15:58:26;10.63;;;6.20;;
37973;SDS011;23796;51.458;7.000;2022-10-13T16:00:52;11.73;;;6.70;;
37973;SDS011;23796;51.458;7.000;2022-10-13T16:03:18;10.05;;;6.55;;
37973;SDS011;23796;51.458;7.000;2022-10-13T16:05:46;10.63;;;6.32;;
37973;SDS011;23796;51.458;7.000;2022-10-13T16:08:14;10.32;;;7.55;;
37973;SDS011;23796;51.458;7.000;2022-10-13T16:10:40;21.88;;;15.48;;
37973;SDS011;23796;51.458;7.000;2022-10-13T16:13:06;23.90;;;19.02;;
37973;SDS011;23796;51.458;7.000;2022-10-13T16:15:39;15.45;;;10.38;;
37973;SDS011;23796;51.458;7.000;2022-10-13T16:18:06;9.23;;;6.88;;
37973;SDS011;23796;51.458;7.000;2022-10-13T16:20:32;12.25;;;8.23;;
37973;SDS011;23796;51.458;7.000;2022-10-13T16:23:04;10.48;;;7.40;;
37973;SDS011;23796;51.458;7.000;2022-10-13T16:25:29;11.60;;;6.93;;
37973;SDS011;23796;51.458;7.000;2022-10-13T16:27:58;10.15;;;7.20;;
37973;SDS011;23796;51.458;7.000;2022-10-13T16:30:24;9.88;;;6.85;;
37973;SDS011;23796;51.458;7.000;2022-10-13T16:32:54;12.55;;;7.47;;
37973;SDS011;23796;51.458;7.000;2022-10-13T16:35:22;10.57;;;7.50;;
37973;SDS011;23796;51.458;7.000;2022-10-13T16:37:50;10.88;;;7.32;;
37973;SDS011;23796;51.458;7.000;2022-10-13T16:40:15;9.70;;;7.13;;
37973;SDS011;23796;51.458;7.000;2022-10-13T16:42:41;10.40;;;7.35;;
37973;SDS011;23796;51.458;7.000;2022-10-13T16:45:09;10.27;;;7.43;;
37973;SDS011;23796;51.458;7.000;2022-10-13T16:47:35;12.57;;;7.03;;
37973;SDS011;23796;51.458;7.000;2022-10-13T16:50:01;11.57;;;7.28;;
37973;SDS011;23796;51.458;7.000;2022-10-13T16:52:30;11.45;;;7.68;;
37973;SDS011;23796;51.458;7.000;2022-10-13T16:54:58;11.20;;;7.30;;
37973;SDS011;23796;51.458;7.000;2022-10-13T16:57:27;11.93;;;7.10;;
37973;SDS011;23796;51.458;7.000;2022-10-13T16:59:54;10.85;;;6.93;;